Astoria, Illinois
Current Conditions -  °F | °C
As of 7:35 PM on Monday 20 Oct 2014 (Local Time) from KMQB Reporting Station
Haze Haze  
Wind Chill: 10°   Ceiling: Unl
Heat Index: 10°   Visibility: 1.5mi
Dew Point:   Wind: 6mph
Humidity: 73%   Direction: 280°W
Pressure: 30"   Gusts: NA
Location:  40.23°N, 90.36°W
Report Text: KMQB 210035Z AUTO 28005KT 1 1/2SM HZ SCT002 10/06 A3000 RMK AO2 T01040057
Loading
Personal Weather Stations






























Interactive Weather Map
Tropical Storm Tracking
New forecast layout! Learn more

10-Day Weather Forecast

Advertisements
Track Severe Weather on mobile